sensor_id;sensor_type;location;lat;lon;timestamp;temperature;humidity
18103;DHT22;9178;51.120;6.192;2022-10-14T00:02:12;12.90;99.90
18103;DHT22;9178;51.120;6.192;2022-10-14T00:04:38;12.80;99.90
18103;DHT22;9178;51.120;6.192;2022-10-14T00:07:05;12.90;99.90
18103;DHT22;9178;51.120;6.192;2022-10-14T00:09:33;12.90;99.90
18103;DHT22;9178;51.120;6.192;2022-10-14T00:12:00;12.90;99.90
18103;DHT22;9178;51.120;6.192;2022-10-14T00:14:27;12.90;99.90
18103;DHT22;9178;51.120;6.192;2022-10-14T00:16:54;12.90;99.90
18103;DHT22;9178;51.120;6.192;2022-10-14T00:19:21;12.90;99.90
18103;DHT22;9178;51.120;6.192;2022-10-14T00:21:47;12.90;99.90
18103;DHT22;9178;51.120;6.192;2022-10-14T00:24:15;12.90;99.90
18103;DHT22;9178;51.120;6.192;2022-10-14T00:26:44;12.90;99.90
18103;DHT22;9178;51.120;6.192;2022-10-14T00:29:14;13.00;99.90
18103;DHT22;9178;51.120;6.192;2022-10-14T00:31:42;13.00;99.90
18103;DHT22;9178;51.120;6.192;2022-10-14T00:34:09;13.00;99.90
18103;DHT22;9178;51.120;6.192;2022-10-14T00:36:37;13.00;99.90
18103;DHT22;9178;51.120;6.192;2022-10-14T00:39:05;13.00;99.90
18103;DHT22;9178;51.120;6.192;2022-10-14T00:41:32;13.00;99.90
18103;DHT22;9178;51.120;6.192;2022-10-14T00:44:03;13.00;99.90
18103;DHT22;9178;51.120;6.192;2022-10-14T00:46:32;13.00;99.90
18103;DHT22;9178;51.120;6.192;2022-10-14T00:49:02;13.00;99.90
18103;DHT22;9178;51.120;6.192;2022-10-14T00:51:30;13.10;99.90
18103;DHT22;9178;51.120;6.192;2022-10-14T00:53:57;13.10;99.90
18103;DHT22;9178;51.120;6.192;2022-10-14T00:56:26;13.10;99.90
18103;DHT22;9178;51.120;6.192;2022-10-14T00:58:54;13.10;99.90
18103;DHT22;9178;51.120;6.192;2022-10-14T01:01:23;13.10;99.90
18103;DHT22;9178;51.120;6.192;2022-10-14T01:03:50;13.10;99.90
18103;DHT22;9178;51.120;6.192;2022-10-14T01:06:23;13.10;99.90
18103;DHT22;9178;51.120;6.192;2022-10-14T01:08:57;13.10;99.90
18103;DHT22;9178;51.120;6.192;2022-10-14T01:11:32;13.10;99.90
18103;DHT22;9178;51.120;6.192;2022-10-14T01:14:09;13.10;99.90
18103;DHT22;9178;51.120;6.192;2022-10-14T01:16:46;13.10;99.90
18103;DHT22;9178;51.120;6.192;2022-10-14T01:22:23;13.10;99.90
18103;DHT22;9178;51.120;6.192;2022-10-14T01:25:00;13.20;99.90
18103;DHT22;9178;51.120;6.192;2022-10-14T01:28:05;13.20;99.90
18103;DHT22;9178;51.120;6.192;2022-10-14T01:30:43;13.20;99.90
18103;DHT22;9178;51.120;6.192;2022-10-14T01:33:13;13.20;99.90
18103;DHT22;9178;51.120;6.192;2022-10-14T01:35:52;13.20;99.90
18103;DHT22;9178;51.120;6.192;2022-10-14T01:41:12;13.20;99.90
18103;DHT22;9178;51.120;6.192;2022-10-14T01:43:42;13.20;99.90
18103;DHT22;9178;51.120;6.192;2022-10-14T01:46:12;13.20;99.90
18103;DHT22;9178;51.120;6.192;2022-10-14T01:48:43;13.20;99.90
18103;DHT22;9178;51.120;6.192;2022-10-14T01:51:14;13.20;99.90
18103;DHT22;9178;51.120;6.192;2022-10-14T01:53:49;13.20;99.90
18103;DHT22;9178;51.120;6.192;2022-10-14T01:56:17;13.20;99.90
18103;DHT22;9178;51.120;6.192;2022-10-14T01:58:45;13.20;99.90
18103;DHT22;9178;51.120;6.192;2022-10-14T02:01:13;13.20;99.90
18103;DHT22;9178;51.120;6.192;2022-10-14T02:03:42;13.20;99.90
18103;DHT22;9178;51.120;6.192;2022-10-14T02:06:13;13.20;99.90
18103;DHT22;9178;51.120;6.192;2022-10-14T02:08:55;13.20;99.90
18103;DHT22;9178;51.120;6.192;2022-10-14T02:11:24;13.20;99.90
18103;DHT22;9178;51.120;6.192;2022-10-14T02:14:03;13.20;99.90
18103;DHT22;9178;51.120;6.192;2022-10-14T02:16:40;13.30;99.90
18103;DHT22;9178;51.120;6.192;2022-10-14T02:19:16;13.20;99.90
18103;DHT22;9178;51.120;6.192;2022-10-14T02:21:55;13.30;99.90
18103;DHT22;9178;51.120;6.192;2022-10-14T02:24:27;13.20;99.90
18103;DHT22;9178;51.120;6.192;2022-10-14T02:26:59;13.20;99.90
18103;DHT22;9178;51.120;6.192;2022-10-14T02:29:27;13.20;99.90
18103;DHT22;9178;51.120;6.192;2022-10-14T02:31:56;13.20;99.90
18103;DHT22;9178;51.120;6.192;2022-10-14T02:34:24;13.20;99.90
18103;DHT22;9178;51.120;6.192;2022-10-14T02:36:52;13.20;99.90
18103;DHT22;9178;51.120;6.192;2022-10-14T02:39:23;13.20;99.90
18103;DHT22;9178;51.120;6.192;2022-10-14T02:41:51;13.20;99.90
18103;DHT22;9178;51.120;6.192;2022-10-14T02:44:18;13.20;99.90
18103;DHT22;9178;51.120;6.192;2022-10-14T02:46:45;13.20;99.90
18103;DHT22;9178;51.120;6.192;2022-10-14T02:49:14;13.20;99.90
18103;DHT22;9178;51.120;6.192;2022-10-14T02:51:41;13.10;99.90
18103;DHT22;9178;51.120;6.192;2022-10-14T02:54:08;13.20;99.90
18103;DHT22;9178;51.120;6.192;2022-10-14T02:56:35;13.20;99.90
18103;DHT22;9178;51.120;6.192;2022-10-14T02:59:01;13.20;99.90
18103;DHT22;9178;51.120;6.192;2022-10-14T03:01:28;13.20;99.90
18103;DHT22;9178;51.120;6.192;2022-10-14T03:03:55;13.20;99.90
18103;DHT22;9178;51.120;6.192;2022-10-14T03:06:23;13.20;99.90
18103;DHT22;9178;51.120;6.192;2022-10-14T03:08:50;13.20;99.90
18103;DHT22;9178;51.120;6.192;2022-10-14T03:11:17;13.20;99.90
18103;DHT22;9178;51.120;6.192;2022-10-14T03:13:44;13.20;99.90
18103;DHT22;9178;51.120;6.192;2022-10-14T03:16:10;13.20;99.90
18103;DHT22;9178;51.120;6.192;2022-10-14T03:18:37;13.30;99.90
18103;DHT22;9178;51.120;6.192;2022-10-14T03:21:04;13.30;99.90
18103;DHT22;9178;51.120;6.192;2022-10-14T03:23:32;13.30;99.90
18103;DHT22;9178;51.120;6.192;2022-10-14T03:25:59;13.30;99.90
18103;DHT22;9178;51.120;6.192;2022-10-14T03:28:29;13.30;99.90
18103;DHT22;9178;51.120;6.192;2022-10-14T03:30:55;13.30;99.90
18103;DHT22;9178;51.120;6.192;2022-10-14T03:33:22;13.30;99.90
18103;DHT22;9178;51.120;6.192;2022-10-14T03:35:49;13.30;99.90
18103;DHT22;9178;51.120;6.192;2022-10-14T03:38:16;13.30;99.90
18103;DHT22;9178;51.120;6.192;2022-10-14T03:40:45;13.30;99.90
18103;DHT22;9178;51.120;6.192;2022-10-14T03:43:12;13.30;99.90
18103;DHT22;9178;51.120;6.192;2022-10-14T03:45:39;13.30;99.90
18103;DHT22;9178;51.120;6.192;2022-10-14T03:48:05;13.30;99.90
18103;DHT22;9178;51.120;6.192;2022-10-14T03:50:32;13.30;99.90
18103;DHT22;9178;51.120;6.192;2022-10-14T03:52:59;13.30;99.90
18103;DHT22;9178;51.120;6.192;2022-10-14T03:55:26;13.30;99.90
18103;DHT22;9178;51.120;6.192;2022-10-14T03:57:54;13.30;99.90
18103;DHT22;9178;51.120;6.192;2022-10-14T04:00:21;13.30;99.90
18103;DHT22;9178;51.120;6.192;2022-10-14T04:02:48;13.30;99.90
18103;DHT22;9178;51.120;6.192;2022-10-14T04:05:15;13.30;99.90
18103;DHT22;9178;51.120;6.192;2022-10-14T04:07:42;13.30;99.90
18103;DHT22;9178;51.120;6.192;2022-10-14T04:10:09;13.30;99.90
18103;DHT22;9178;51.120;6.192;2022-10-14T04:12:35;13.30;99.90
18103;DHT22;9178;51.120;6.192;2022-10-14T04:15:07;13.30;99.90
18103;DHT22;9178;51.120;6.192;2022-10-14T04:17:34;13.30;99.90
18103;DHT22;9178;51.120;6.192;2022-10-14T04:20:01;13.30;99.90
18103;DHT22;9178;51.120;6.192;2022-10-14T04:22:27;13.30;99.90
18103;DHT22;9178;51.120;6.192;2022-10-14T04:24:54;13.30;99.90
18103;DHT22;9178;51.120;6.192;2022-10-14T04:27:21;13.30;99.90
18103;DHT22;9178;51.120;6.192;2022-10-14T04:29:49;13.30;99.90
18103;DHT22;9178;51.120;6.192;2022-10-14T04:32:18;13.30;99.90
18103;DHT22;9178;51.120;6.192;2022-10-14T04:34:45;13.30;99.90
18103;DHT22;9178;51.120;6.192;2022-10-14T04:37:12;13.30;99.90
18103;DHT22;9178;51.120;6.192;2022-10-14T04:39:39;13.40;99.90
18103;DHT22;9178;51.120;6.192;2022-10-14T04:42:06;13.30;99.90
18103;DHT22;9178;51.120;6.192;2022-10-14T04:44:32;13.30;99.90
18103;DHT22;9178;51.120;6.192;2022-10-14T04:46:59;13.30;99.90
18103;DHT22;9178;51.120;6.192;2022-10-14T04:49:27;13.30;99.90
18103;DHT22;9178;51.120;6.192;2022-10-14T04:51:54;13.30;99.90
18103;DHT22;9178;51.120;6.192;2022-10-14T04:54:21;13.30;99.90
18103;DHT22;9178;51.120;6.192;2022-10-14T04:56:48;13.30;99.90
18103;DHT22;9178;51.120;6.192;2022-10-14T04:59:15;13.30;99.90
18103;DHT22;9178;51.120;6.192;2022-10-14T05:01:42;13.30;99.90
18103;DHT22;9178;51.120;6.192;2022-10-14T05:04:08;13.30;99.90
18103;DHT22;9178;51.120;6.192;2022-10-14T05:06:37;13.30;99.90
18103;DHT22;9178;51.120;6.192;2022-10-14T05:09:03;13.30;99.90
18103;DHT22;9178;51.120;6.192;2022-10-14T05:11:30;13.30;99.90
18103;DHT22;9178;51.120;6.192;2022-10-14T05:13:58;13.30;99.90
18103;DHT22;9178;51.120;6.192;2022-10-14T05:16:24;13.30;99.90
18103;DHT22;9178;51.120;6.192;2022-10-14T05:18:52;13.30;99.90
18103;DHT22;9178;51.120;6.192;2022-10-14T05:21:19;13.30;99.90
18103;DHT22;9178;51.120;6.192;2022-10-14T05:23:50;13.30;99.90
18103;DHT22;9178;51.120;6.192;2022-10-14T05:26:17;13.20;99.90
18103;DHT22;9178;51.120;6.192;2022-10-14T05:28:43;13.20;99.90
18103;DHT22;9178;51.120;6.192;2022-10-14T05:31:10;13.20;99.90
18103;DHT22;9178;51.120;6.192;2022-10-14T05:33:37;13.20;99.90
18103;DHT22;9178;51.120;6.192;2022-10-14T05:36:04;13.20;99.90
18103;DHT22;9178;51.120;6.192;2022-10-14T05:38:31;13.20;99.90
18103;DHT22;9178;51.120;6.192;2022-10-14T05:41:00;13.20;99.90
18103;DHT22;9178;51.120;6.192;2022-10-14T05:43:27;13.20;99.90
18103;DHT22;9178;51.120;6.192;2022-10-14T05:45:54;13.20;99.90
18103;DHT22;9178;51.120;6.192;2022-10-14T05:48:21;13.20;99.90
18103;DHT22;9178;51.120;6.192;2022-10-14T05:50:47;13.20;99.90
18103;DHT22;9178;51.120;6.192;2022-10-14T05:53:14;13.20;99.90
18103;DHT22;9178;51.120;6.192;2022-10-14T05:55:41;13.20;99.90
18103;DHT22;9178;51.120;6.192;2022-10-14T05:58:09;13.20;99.90
18103;DHT22;9178;51.120;6.192;2022-10-14T06:00:36;13.20;99.90
18103;DHT22;9178;51.120;6.192;2022-10-14T06:03:02;13.10;99.90
18103;DHT22;9178;51.120;6.192;2022-10-14T06:05:29;13.20;99.90
18103;DHT22;9178;51.120;6.192;2022-10-14T06:07:56;13.10;99.90
18103;DHT22;9178;51.120;6.192;2022-10-14T06:10:23;13.10;99.90
18103;DHT22;9178;51.120;6.192;2022-10-14T06:12:49;13.10;99.90
18103;DHT22;9178;51.120;6.192;2022-10-14T06:15:18;13.10;99.90
18103;DHT22;9178;51.120;6.192;2022-10-14T06:17:44;13.10;99.90
18103;DHT22;9178;51.120;6.192;2022-10-14T06:20:11;13.10;99.90
18103;DHT22;9178;51.120;6.192;2022-10-14T06:22:38;13.10;99.90
18103;DHT22;9178;51.120;6.192;2022-10-14T06:25:05;13.10;99.90
18103;DHT22;9178;51.120;6.192;2022-10-14T06:27:32;13.10;99.90
18103;DHT22;9178;51.120;6.192;2022-10-14T06:29:59;13.10;99.90
18103;DHT22;9178;51.120;6.192;2022-10-14T06:32:27;13.10;99.90
18103;DHT22;9178;51.120;6.192;2022-10-14T06:34:54;13.10;99.90
18103;DHT22;9178;51.120;6.192;2022-10-14T06:37:21;13.20;99.90
18103;DHT22;9178;51.120;6.192;2022-10-14T06:39:47;13.20;99.90
18103;DHT22;9178;51.120;6.192;2022-10-14T06:42:14;13.20;99.90
18103;DHT22;9178;51.120;6.192;2022-10-14T06:44:41;13.20;99.90
18103;DHT22;9178;51.120;6.192;2022-10-14T06:47:08;13.20;99.90
18103;DHT22;9178;51.120;6.192;2022-10-14T06:49:36;13.20;99.90
18103;DHT22;9178;51.120;6.192;2022-10-14T06:52:03;13.20;99.90
18103;DHT22;9178;51.120;6.192;2022-10-14T06:54:30;13.20;99.90
18103;DHT22;9178;51.120;6.192;2022-10-14T06:56:57;13.30;99.90
18103;DHT22;9178;51.120;6.192;2022-10-14T06:59:23;13.30;99.90
18103;DHT22;9178;51.120;6.192;2022-10-14T07:01:52;13.30;99.90
18103;DHT22;9178;51.120;6.192;2022-10-14T07:04:19;13.30;99.90
18103;DHT22;9178;51.120;6.192;2022-10-14T07:06:47;13.30;99.90
18103;DHT22;9178;51.120;6.192;2022-10-14T07:09:14;13.30;99.90
18103;DHT22;9178;51.120;6.192;2022-10-14T07:11:41;13.30;99.90
18103;DHT22;9178;51.120;6.192;2022-10-14T07:14:08;13.30;99.90
18103;DHT22;9178;51.120;6.192;2022-10-14T07:16:35;13.40;99.90
18103;DHT22;9178;51.120;6.192;2022-10-14T07:19:02;13.40;99.90
18103;DHT22;9178;51.120;6.192;2022-10-14T07:21:29;13.40;99.90
18103;DHT22;9178;51.120;6.192;2022-10-14T07:23:57;13.40;99.90
18103;DHT22;9178;51.120;6.192;2022-10-14T07:26:24;13.40;99.90
18103;DHT22;9178;51.120;6.192;2022-10-14T07:28:51;13.40;99.90
18103;DHT22;9178;51.120;6.192;2022-10-14T07:31:18;13.50;99.90
18103;DHT22;9178;51.120;6.192;2022-10-14T07:33:44;13.50;99.90
18103;DHT22;9178;51.120;6.192;2022-10-14T07:36:14;13.50;99.90
18103;DHT22;9178;51.120;6.192;2022-10-14T07:38:41;13.50;99.90
18103;DHT22;9178;51.120;6.192;2022-10-14T07:41:11;13.50;99.90
18103;DHT22;9178;51.120;6.192;2022-10-14T07:43:43;13.40;99.90
18103;DHT22;9178;51.120;6.192;2022-10-14T07:46:10;13.50;99.90
18103;DHT22;9178;51.120;6.192;2022-10-14T07:48:37;13.50;99.90
18103;DHT22;9178;51.120;6.192;2022-10-14T07:51:05;13.60;99.90
18103;DHT22;9178;51.120;6.192;2022-10-14T07:53:32;13.60;99.90
18103;DHT22;9178;51.120;6.192;2022-10-14T07:55:58;13.60;99.90
18103;DHT22;9178;51.120;6.192;2022-10-14T07:58:29;13.70;99.90
18103;DHT22;9178;51.120;6.192;2022-10-14T08:00:57;13.70;99.90
18103;DHT22;9178;51.120;6.192;2022-10-14T08:03:24;13.70;99.90
18103;DHT22;9178;51.120;6.192;2022-10-14T08:05:58;13.70;99.90
18103;DHT22;9178;51.120;6.192;2022-10-14T08:08:25;13.70;99.90
18103;DHT22;9178;51.120;6.192;2022-10-14T08:10:59;13.80;99.90
18103;DHT22;9178;51.120;6.192;2022-10-14T08:13:27;13.80;99.90
18103;DHT22;9178;51.120;6.192;2022-10-14T08:15:54;13.80;99.90
18103;DHT22;9178;51.120;6.192;2022-10-14T08:18:21;13.90;99.90
18103;DHT22;9178;51.120;6.192;2022-10-14T08:20:48;13.90;99.90
18103;DHT22;9178;51.120;6.192;2022-10-14T08:23:15;13.90;99.90
18103;DHT22;9178;51.120;6.192;2022-10-14T08:25:42;13.90;99.90
18103;DHT22;9178;51.120;6.192;2022-10-14T08:28:09;14.00;99.90
18103;DHT22;9178;51.120;6.192;2022-10-14T08:30:37;14.00;99.90
18103;DHT22;9178;51.120;6.192;2022-10-14T08:33:05;14.00;99.90
18103;DHT22;9178;51.120;6.192;2022-10-14T08:35:31;14.00;99.90
18103;DHT22;9178;51.120;6.192;2022-10-14T08:38:00;14.10;99.90
18103;DHT22;9178;51.120;6.192;2022-10-14T08:40:29;14.20;99.90
18103;DHT22;9178;51.120;6.192;2022-10-14T08:43:00;14.20;99.90
18103;DHT22;9178;51.120;6.192;2022-10-14T08:45:32;14.10;99.90
18103;DHT22;9178;51.120;6.192;2022-10-14T08:48:07;14.10;99.90
18103;DHT22;9178;51.120;6.192;2022-10-14T08:50:39;14.10;99.90
18103;DHT22;9178;51.120;6.192;2022-10-14T08:53:12;14.20;99.90
18103;DHT22;9178;51.120;6.192;2022-10-14T08:55:42;14.20;99.90
18103;DHT22;9178;51.120;6.192;2022-10-14T08:58:13;14.20;99.90
18103;DHT22;9178;51.120;6.192;2022-10-14T09:00:42;14.20;99.90
18103;DHT22;9178;51.120;6.192;2022-10-14T09:03:16;14.30;99.90
18103;DHT22;9178;51.120;6.192;2022-10-14T09:05:43;14.30;99.90
18103;DHT22;9178;51.120;6.192;2022-10-14T09:08:14;14.30;99.90
18103;DHT22;9178;51.120;6.192;2022-10-14T09:10:42;14.30;99.90
18103;DHT22;9178;51.120;6.192;2022-10-14T09:13:14;14.30;99.90
18103;DHT22;9178;51.120;6.192;2022-10-14T09:15:45;14.40;99.90
18103;DHT22;9178;51.120;6.192;2022-10-14T09:18:22;14.40;99.90
18103;DHT22;9178;51.120;6.192;2022-10-14T09:20:50;14.50;99.90
18103;DHT22;9178;51.120;6.192;2022-10-14T09:23:18;14.50;99.90
18103;DHT22;9178;51.120;6.192;2022-10-14T09:25:55;14.50;99.90
18103;DHT22;9178;51.120;6.192;2022-10-14T09:28:32;14.60;99.90
18103;DHT22;9178;51.120;6.192;2022-10-14T09:31:03;14.60;99.90
18103;DHT22;9178;51.120;6.192;2022-10-14T09:33:31;14.70;99.90
18103;DHT22;9178;51.120;6.192;2022-10-14T09:36:04;14.70;99.90
18103;DHT22;9178;51.120;6.192;2022-10-14T09:38:31;14.70;99.90
18103;DHT22;9178;51.120;6.192;2022-10-14T09:40:59;14.70;99.90
18103;DHT22;9178;51.120;6.192;2022-10-14T09:43:26;14.80;99.90
18103;DHT22;9178;51.120;6.192;2022-10-14T09:45:57;14.80;99.90
18103;DHT22;9178;51.120;6.192;2022-10-14T09:48:32;14.90;99.90
18103;DHT22;9178;51.120;6.192;2022-10-14T09:51:04;14.80;99.90
18103;DHT22;9178;51.120;6.192;2022-10-14T09:53:35;14.90;99.90
18103;DHT22;9178;51.120;6.192;2022-10-14T09:56:07;14.90;99.90
18103;DHT22;9178;51.120;6.192;2022-10-14T09:58:37;15.00;99.90
18103;DHT22;9178;51.120;6.192;2022-10-14T10:01:05;15.00;99.90
18103;DHT22;9178;51.120;6.192;2022-10-14T10:03:38;15.00;99.90
18103;DHT22;9178;51.120;6.192;2022-10-14T10:06:07;15.00;99.90
18103;DHT22;9178;51.120;6.192;2022-10-14T10:08:36;15.00;99.90
18103;DHT22;9178;51.120;6.192;2022-10-14T10:11:05;15.00;99.90
18103;DHT22;9178;51.120;6.192;2022-10-14T10:13:38;15.00;99.90
18103;DHT22;9178;51.120;6.192;2022-10-14T10:16:09;15.00;99.90
18103;DHT22;9178;51.120;6.192;2022-10-14T10:18:44;15.00;99.90
18103;DHT22;9178;51.120;6.192;2022-10-14T10:21:15;15.00;99.90
18103;DHT22;9178;51.120;6.192;2022-10-14T10:23:50;15.00;99.90
18103;DHT22;9178;51.120;6.192;2022-10-14T10:26:19;15.00;99.90
18103;DHT22;9178;51.120;6.192;2022-10-14T10:28:50;15.00;99.90
18103;DHT22;9178;51.120;6.192;2022-10-14T10:31:30;15.00;99.90
18103;DHT22;9178;51.120;6.192;2022-10-14T10:34:12;15.00;99.90
18103;DHT22;9178;51.120;6.192;2022-10-14T10:36:51;15.00;99.90
18103;DHT22;9178;51.120;6.192;2022-10-14T10:39:27;15.10;99.90
18103;DHT22;9178;51.120;6.192;2022-10-14T10:42:06;15.10;99.90
18103;DHT22;9178;51.120;6.192;2022-10-14T10:44:54;15.10;99.90
18103;DHT22;9178;51.120;6.192;2022-10-14T10:47:31;15.00;99.90
18103;DHT22;9178;51.120;6.192;2022-10-14T10:50:25;15.00;99.90
18103;DHT22;9178;51.120;6.192;2022-10-14T10:53:03;15.10;99.90
18103;DHT22;9178;51.120;6.192;2022-10-14T10:55:43;15.10;99.90
18103;DHT22;9178;51.120;6.192;2022-10-14T10:58:23;15.10;99.90
18103;DHT22;9178;51.120;6.192;2022-10-14T11:00:56;15.10;99.90
18103;DHT22;9178;51.120;6.192;2022-10-14T11:03:36;15.10;99.90
18103;DHT22;9178;51.120;6.192;2022-10-14T11:06:14;15.20;99.90
18103;DHT22;9178;51.120;6.192;2022-10-14T11:09:04;15.30;99.90
18103;DHT22;9178;51.120;6.192;2022-10-14T11:11:55;15.30;99.90
18103;DHT22;9178;51.120;6.192;2022-10-14T11:14:51;15.40;99.90
18103;DHT22;9178;51.120;6.192;2022-10-14T11:17:26;15.50;99.90
18103;DHT22;9178;51.120;6.192;2022-10-14T11:20:02;15.40;99.90
18103;DHT22;9178;51.120;6.192;2022-10-14T11:22:46;15.40;99.90
18103;DHT22;9178;51.120;6.192;2022-10-14T11:25:22;15.40;99.90
18103;DHT22;9178;51.120;6.192;2022-10-14T11:27:58;15.40;99.90
18103;DHT22;9178;51.120;6.192;2022-10-14T11:30:38;15.50;99.90
18103;DHT22;9178;51.120;6.192;2022-10-14T11:33:21;15.60;99.90
18103;DHT22;9178;51.120;6.192;2022-10-14T11:35:57;15.60;99.90
18103;DHT22;9178;51.120;6.192;2022-10-14T11:38:49;15.60;99.90
18103;DHT22;9178;51.120;6.192;2022-10-14T11:41:26;15.70;99.90
18103;DHT22;9178;51.120;6.192;2022-10-14T11:44:02;15.70;99.90
18103;DHT22;9178;51.120;6.192;2022-10-14T11:46:36;15.80;99.90
18103;DHT22;9178;51.120;6.192;2022-10-14T11:49:11;15.80;99.90
18103;DHT22;9178;51.120;6.192;2022-10-14T11:51:41;15.70;99.90
18103;DHT22;9178;51.120;6.192;2022-10-14T11:54:16;15.70;99.90
18103;DHT22;9178;51.120;6.192;2022-10-14T11:56:46;15.80;99.90
18103;DHT22;9178;51.120;6.192;2022-10-14T11:59:35;15.70;99.90
18103;DHT22;9178;51.120;6.192;2022-10-14T12:02:13;15.70;99.90
18103;DHT22;9178;51.120;6.192;2022-10-14T12:04:49;15.80;99.90
18103;DHT22;9178;51.120;6.192;2022-10-14T12:07:22;15.80;99.90
18103;DHT22;9178;51.120;6.192;2022-10-14T12:09:54;15.80;99.90
18103;DHT22;9178;51.120;6.192;2022-10-14T12:12:24;15.80;99.90
18103;DHT22;9178;51.120;6.192;2022-10-14T12:14:55;15.90;99.90
18103;DHT22;9178;51.120;6.192;2022-10-14T12:17:29;15.80;99.90
18103;DHT22;9178;51.120;6.192;2022-10-14T12:20:01;15.80;99.90
18103;DHT22;9178;51.120;6.192;2022-10-14T12:22:29;15.80;99.90
18103;DHT22;9178;51.120;6.192;2022-10-14T12:25:03;15.80;99.90
18103;DHT22;9178;51.120;6.192;2022-10-14T12:27:31;15.80;99.90
18103;DHT22;9178;51.120;6.192;2022-10-14T12:29:58;15.80;99.90
18103;DHT22;9178;51.120;6.192;2022-10-14T12:32:27;15.80;99.90
18103;DHT22;9178;51.120;6.192;2022-10-14T12:34:55;15.80;99.90
18103;DHT22;9178;51.120;6.192;2022-10-14T12:37:40;15.90;99.90
18103;DHT22;9178;51.120;6.192;2022-10-14T12:40:26;15.80;99.90
18103;DHT22;9178;51.120;6.192;2022-10-14T12:43:03;15.90;99.90
18103;DHT22;9178;51.120;6.192;2022-10-14T12:45:32;15.90;99.90
18103;DHT22;9178;51.120;6.192;2022-10-14T12:48:05;15.90;99.90
18103;DHT22;9178;51.120;6.192;2022-10-14T12:50:36;15.90;99.90
18103;DHT22;9178;51.120;6.192;2022-10-14T12:53:05;16.00;99.90
18103;DHT22;9178;51.120;6.192;2022-10-14T12:55:46;16.00;99.90
18103;DHT22;9178;51.120;6.192;2022-10-14T12:58:22;16.10;99.90
18103;DHT22;9178;51.120;6.192;2022-10-14T13:00:53;16.20;99.90
18103;DHT22;9178;51.120;6.192;2022-10-14T13:03:23;16.30;99.90
18103;DHT22;9178;51.120;6.192;2022-10-14T13:05:52;16.30;99.90
18103;DHT22;9178;51.120;6.192;2022-10-14T13:08:39;16.40;99.90
18103;DHT22;9178;51.120;6.192;2022-10-14T13:11:11;16.30;99.90
18103;DHT22;9178;51.120;6.192;2022-10-14T13:13:49;16.30;99.90
18103;DHT22;9178;51.120;6.192;2022-10-14T13:16:57;16.30;99.90
18103;DHT22;9178;51.120;6.192;2022-10-14T13:19:41;16.30;99.90
18103;DHT22;9178;51.120;6.192;2022-10-14T13:22:34;16.30;99.90
18103;DHT22;9178;51.120;6.192;2022-10-14T13:25:11;16.30;99.90
18103;DHT22;9178;51.120;6.192;2022-10-14T13:27:48;16.30;99.90
18103;DHT22;9178;51.120;6.192;2022-10-14T13:30:19;16.30;99.90
18103;DHT22;9178;51.120;6.192;2022-10-14T13:32:52;16.30;99.90
18103;DHT22;9178;51.120;6.192;2022-10-14T13:35:23;16.30;99.90
18103;DHT22;9178;51.120;6.192;2022-10-14T13:37:58;16.40;99.90
18103;DHT22;9178;51.120;6.192;2022-10-14T13:40:28;16.30;99.90
18103;DHT22;9178;51.120;6.192;2022-10-14T13:43:01;16.30;99.90
18103;DHT22;9178;51.120;6.192;2022-10-14T13:45:36;16.30;99.90
18103;DHT22;9178;51.120;6.192;2022-10-14T13:48:05;16.30;99.90
18103;DHT22;9178;51.120;6.192;2022-10-14T13:50:36;16.20;99.90
18103;DHT22;9178;51.120;6.192;2022-10-14T13:53:05;16.20;99.90
18103;DHT22;9178;51.120;6.192;2022-10-14T13:55:42;16.10;99.90
18103;DHT22;9178;51.120;6.192;2022-10-14T13:58:13;16.10;99.90
18103;DHT22;9178;51.120;6.192;2022-10-14T14:00:44;16.00;99.90
18103;DHT22;9178;51.120;6.192;2022-10-14T14:03:20;16.00;99.90
18103;DHT22;9178;51.120;6.192;2022-10-14T14:05:49;16.00;99.90
18103;DHT22;9178;51.120;6.192;2022-10-14T14:08:21;16.00;99.90
18103;DHT22;9178;51.120;6.192;2022-10-14T14:10:54;16.00;99.90
18103;DHT22;9178;51.120;6.192;2022-10-14T14:13:22;16.00;99.90
18103;DHT22;9178;51.120;6.192;2022-10-14T14:15:50;16.00;99.90
18103;DHT22;9178;51.120;6.192;2022-10-14T14:18:33;16.00;99.90
18103;DHT22;9178;51.120;6.192;2022-10-14T14:21:00;16.00;99.90
18103;DHT22;9178;51.120;6.192;2022-10-14T14:23:27;16.00;99.90
18103;DHT22;9178;51.120;6.192;2022-10-14T14:25:54;16.00;99.90
18103;DHT22;9178;51.120;6.192;2022-10-14T14:28:26;16.00;99.90
18103;DHT22;9178;51.120;6.192;2022-10-14T14:30:55;16.00;99.90
18103;DHT22;9178;51.120;6.192;2022-10-14T14:33:28;16.00;99.90
18103;DHT22;9178;51.120;6.192;2022-10-14T14:35:57;16.00;99.90
18103;DHT22;9178;51.120;6.192;2022-10-14T14:38:26;16.00;99.90
18103;DHT22;9178;51.120;6.192;2022-10-14T14:41:00;16.00;99.90
18103;DHT22;9178;51.120;6.192;2022-10-14T14:43:31;16.10;99.90
18103;DHT22;9178;51.120;6.192;2022-10-14T14:46:04;16.10;99.90
18103;DHT22;9178;51.120;6.192;2022-10-14T14:48:31;16.10;99.90
18103;DHT22;9178;51.120;6.192;2022-10-14T14:51:00;16.20;99.90
18103;DHT22;9178;51.120;6.192;2022-10-14T14:53:27;16.20;99.90
18103;DHT22;9178;51.120;6.192;2022-10-14T14:56:00;16.20;99.90
18103;DHT22;9178;51.120;6.192;2022-10-14T14:58:33;16.20;99.90
18103;DHT22;9178;51.120;6.192;2022-10-14T15:01:02;16.20;99.90
18103;DHT22;9178;51.120;6.192;2022-10-14T15:03:31;16.20;99.90
18103;DHT22;9178;51.120;6.192;2022-10-14T15:06:00;16.20;99.90
18103;DHT22;9178;51.120;6.192;2022-10-14T15:08:30;16.30;99.90
18103;DHT22;9178;51.120;6.192;2022-10-14T15:10:58;16.30;99.90
18103;DHT22;9178;51.120;6.192;2022-10-14T15:13:41;16.30;99.90
18103;DHT22;9178;51.120;6.192;2022-10-14T15:16:09;16.20;99.90
18103;DHT22;9178;51.120;6.192;2022-10-14T15:18:36;16.30;99.90
18103;DHT22;9178;51.120;6.192;2022-10-14T15:21:14;16.30;99.90
18103;DHT22;9178;51.120;6.192;2022-10-14T15:23:57;16.30;99.90
18103;DHT22;9178;51.120;6.192;2022-10-14T15:26:29;16.40;99.90
18103;DHT22;9178;51.120;6.192;2022-10-14T15:29:15;16.30;99.90
18103;DHT22;9178;51.120;6.192;2022-10-14T15:31:44;16.20;99.90
18103;DHT22;9178;51.120;6.192;2022-10-14T15:34:17;16.20;99.90
18103;DHT22;9178;51.120;6.192;2022-10-14T15:36:47;16.10;99.90
18103;DHT22;9178;51.120;6.192;2022-10-14T15:39:14;16.10;99.90
18103;DHT22;9178;51.120;6.192;2022-10-14T15:41:41;16.10;99.90
18103;DHT22;9178;51.120;6.192;2022-10-14T15:44:09;16.10;99.90
18103;DHT22;9178;51.120;6.192;2022-10-14T15:46:37;16.00;99.90
18103;DHT22;9178;51.120;6.192;2022-10-14T15:49:25;16.00;99.90
18103;DHT22;9178;51.120;6.192;2022-10-14T15:51:52;16.00;99.90
18103;DHT22;9178;51.120;6.192;2022-10-14T15:54:19;16.00;99.90
18103;DHT22;9178;51.120;6.192;2022-10-14T15:56:46;16.00;99.90
18103;DHT22;9178;51.120;6.192;2022-10-14T15:59:15;16.00;99.90
18103;DHT22;9178;51.120;6.192;2022-10-14T16:01:44;16.00;99.90
18103;DHT22;9178;51.120;6.192;2022-10-14T16:04:15;16.00;99.90
18103;DHT22;9178;51.120;6.192;2022-10-14T16:06:43;15.90;99.90
18103;DHT22;9178;51.120;6.192;2022-10-14T16:09:10;15.80;99.90
18103;DHT22;9178;51.120;6.192;2022-10-14T16:11:36;15.80;99.90
18103;DHT22;9178;51.120;6.192;2022-10-14T16:14:03;15.80;99.90